Indian Bulker — 3EYO6 — position and weather

sailwx.info

Track history (hours):
 
Tides and Currents Weather Stations Pressure Air Temp Water Temp Dewpoint Dewpoint Depression Visibility Wind Speed Wind Dir Waves Ship Positions

Indian Bulker

Last reported at 2018-Jan-09 04:03 UTC. Time now 2018-Jan-21 20:51 UTC.
Position N 29°42' W 094°60'.
Warning: this ship's position is 12 days out of date.

Length 180 m; draft 10.6 m.

Type: Ship. MMSI: 372129000.

Date/timePositionNaut miles runAvg speedWind from/ knotsBaromVisibWave heightAir tempDewpointWater temp
2018-Jan-09 04:03N 29°42' W 094°60'0 8.6
2018-Jan-09 04:00N 29°42' W 095°00'5 7.0
2018-Jan-09 03:21N 29°45' W 095°04'2 5.2
2018-Jan-09 03:00N 29°45' W 095°06'2 3.1
2018-Jan-09 02:15N 29°44' W 095°09'0 0.0
2018-Jan-09 01:57N 29°44' W 095°09'0 0.0
2018-Jan-09 01:30N 29°44' W 095°09'0 0.0
2018-Jan-09 01:00N 29°44' W 095°09'0 0.0
2018-Jan-09 00:30N 29°44' W 095°09'0 0.0
2018-Jan-08 23:54N 29°44' W 095°09'0 0.0
2018-Jan-08 23:30N 29°44' W 095°09'0 0.0
2018-Jan-08 23:00N 29°44' W 095°09'0 0.0
2018-Jan-08 22:24N 29°44' W 095°09'0 0.0
2018-Jan-08 21:57N 29°44' W 095°09'0 0.0
2018-Jan-08 21:12N 29°44' W 095°09'0 0.0
2018-Jan-08 20:24N 29°44' W 095°09'0 0.0
2018-Jan-08 19:54N 29°44' W 095°09'0 0.0
2018-Jan-08 19:24N 29°44' W 095°09'0 0.0
2018-Jan-08 18:48N 29°44' W 095°09'0 0.0
2018-Jan-08 18:30N 29°44' W 095°09'0 0.0
2018-Jan-08 18:00N 29°44' W 095°09'0 0.0
2018-Jan-08 17:30N 29°44' W 095°09'0 0.0
2018-Jan-08 16:48N 29°44' W 095°09'0 0.0
2018-Jan-08 16:27N 29°44' W 095°09'0 0.0
2018-Jan-08 16:00N 29°44' W 095°09'0 0.0
2018-Jan-08 15:27N 29°44' W 095°09'0 0.0
2018-Jan-08 15:00N 29°44' W 095°09'0 0.0
2018-Jan-08 13:06N 29°44' W 095°09'0 0.0
2018-Jan-08 12:15N 29°44' W 095°09'0 0.0
2018-Jan-08 11:57N 29°44' W 095°09'0 0.0
2018-Jan-08 11:30N 29°44' W 095°09'0 0.0
2018-Jan-08 10:57N 29°44' W 095°09'0 0.0
2018-Jan-08 10:27N 29°44' W 095°09'0 0.0
2018-Jan-08 10:00N 29°44' W 095°09'0 0.0
2018-Jan-08 09:30N 29°44' W 095°09'0 0.0
2018-Jan-08 08:45N 29°44' W 095°09'0 0.0
2018-Jan-08 08:30N 29°44' W 095°09'0 0.0
2018-Jan-08 07:48N 29°44' W 095°09'0 0.0
2018-Jan-08 07:30N 29°44' W 095°09'0 0.0
2018-Jan-08 07:00N 29°44' W 095°09'0 0.0
2018-Jan-08 06:24N 29°44' W 095°09'0 0.0
2018-Jan-08 06:00N 29°44' W 095°09'0 0.0
2018-Jan-08 05:18N 29°44' W 095°09'0 0.0
2018-Jan-08 05:00N 29°44' W 095°09'0 0.0
2018-Jan-08 04:30N 29°44' W 095°09'0 0.0
2018-Jan-08 04:00N 29°44' W 095°09'0 0.0
2018-Jan-08 03:30N 29°44' W 095°09'0 0.0
2018-Jan-08 02:57N 29°44' W 095°09'0 0.0
2018-Jan-08 02:18N 29°44' W 095°09'0 0.0
2018-Jan-08 01:51N 29°44' W 095°09'0 0.0
2018-Jan-08 01:27N 29°44' W 095°09'0 0.0
2018-Jan-08 01:00N 29°44' W 095°09'1 1.2
2018-Jan-08 00:30N 29°44' W 095°08'3 6.4
2018-Jan-08 00:00N 29°46' W 095°05'4 8.0
2018-Jan-07 23:30N 29°43' W 095°01'4 9.0
2018-Jan-07 23:01N 29°40' W 094°58'611.1
2018-Jan-07 22:31N 29°35' W 094°56'713.1
2018-Jan-07 22:00N 29°29' W 094°52'80 4.8
2018-Jan-07 05:09N 29°39' W 093°20'1 2.7
2018-Jan-07 04:50N 29°40' W 093°20'3 9.5
2018-Jan-07 04:30N 29°43' W 093°20'4 8.6
2018-Jan-07 04:00N 29°47' W 093°21'4 7.5
2018-Jan-07 03:30N 29°51' W 093°21'4 8.7
2018-Jan-07 03:00N 29°55' W 093°20'5 9.1
2018-Jan-07 02:30N 29°60' W 093°20'4 8.0
2018-Jan-07 02:00N 30°04' W 093°20'4 7.7
2018-Jan-07 01:30N 30°08' W 093°20'4 4.2
2018-Jan-07 00:30N 30°11' W 093°18'0 0.0
2018-Jan-07 00:00N 30°11' W 093°18'0 0.0
2018-Jan-06 23:30N 30°11' W 093°18'0 0.0
2018-Jan-06 23:00N 30°11' W 093°18'0 0.0
2018-Jan-06 22:30N 30°11' W 093°18'0 0.0
2018-Jan-06 22:00N 30°11' W 093°18'0 0.0
2018-Jan-06 21:30N 30°11' W 093°18'0 0.0
2018-Jan-06 21:00N 30°11' W 093°18'0 0.0
2018-Jan-06 20:30N 30°11' W 093°18'0 0.0
2018-Jan-06 20:00N 30°11' W 093°18'0 0.0
2018-Jan-06 19:27N 30°11' W 093°18'0 0.0
2018-Jan-06 19:00N 30°11' W 093°18'0 0.0
2018-Jan-06 18:30N 30°11' W 093°18'0 0.0
2018-Jan-06 18:00N 30°11' W 093°18'0 0.0
2018-Jan-06 17:30N 30°11' W 093°18'0 0.0
2018-Jan-06 17:00N 30°11' W 093°18'0 0.0
2018-Jan-06 16:30N 30°11' W 093°18'0 0.0
2018-Jan-06 16:00N 30°11' W 093°18'0 0.0
2018-Jan-06 15:27N 30°11' W 093°18'0 0.0
2018-Jan-06 15:00N 30°11' W 093°18'0 0.0
2018-Jan-06 14:30N 30°11' W 093°18'0 0.0
2018-Jan-06 14:00N 30°11' W 093°18'0 0.0
2018-Jan-06 13:30N 30°11' W 093°18'0 0.0
2018-Jan-06 13:00N 30°11' W 093°18'0 0.0
2018-Jan-06 12:30N 30°11' W 093°18'0 0.0
2018-Jan-06 12:00N 30°11' W 093°18'0 0.0
2018-Jan-06 11:30N 30°11' W 093°18'0 0.0
2018-Jan-06 11:00N 30°11' W 093°18'0 0.0
2018-Jan-06 10:30N 30°11' W 093°18'0 0.0
2018-Jan-06 10:00N 30°11' W 093°18'0 0.0
2018-Jan-06 09:30N 30°11' W 093°18'0 0.0
2018-Jan-06 09:00N 30°11' W 093°18'0 0.0
2018-Jan-06 08:30N 30°11' W 093°18'0 0.0
2018-Jan-06 08:00N 30°11' W 093°18'0 0.0
2018-Jan-06 07:30N 30°11' W 093°18'0 0.0
2018-Jan-06 07:00N 30°11' W 093°18'0 0.0
2018-Jan-06 06:30N 30°11' W 093°18'0 0.0
2018-Jan-06 06:00N 30°11' W 093°18'0 0.0
2018-Jan-06 05:30N 30°11' W 093°18'0 0.0
2018-Jan-06 05:00N 30°11' W 093°18'0 0.0
2018-Jan-06 04:30N 30°11' W 093°18'0 0.0
2018-Jan-06 04:00N 30°11' W 093°18'0 0.0
2018-Jan-06 03:30N 30°11' W 093°18'0 0.0
2018-Jan-06 02:57N 30°11' W 093°18'0 0.0
2018-Jan-06 02:30N 30°11' W 093°18'0 0.0
2018-Jan-06 02:00N 30°11' W 093°18'0 0.0
2018-Jan-06 01:30N 30°11' W 093°18'0 0.0
2018-Jan-06 01:00N 30°11' W 093°18'0 0.0
2018-Jan-06 00:27N 30°11' W 093°18'0 0.0
2018-Jan-06 00:00N 30°11' W 093°18'0 0.0
2018-Jan-05 23:27N 30°11' W 093°18'0 0.0
2018-Jan-05 22:57N 30°11' W 093°18'0 0.0
2018-Jan-05 22:30N 30°11' W 093°18'0 0.0
2018-Jan-05 22:00N 30°11' W 093°18'0 0.0
2018-Jan-05 21:30N 30°11' W 093°18'0 0.0
2018-Jan-05 21:00N 30°11' W 093°18'0 0.0
2018-Jan-05 20:30N 30°11' W 093°18'0 0.0
2018-Jan-05 20:00N 30°11' W 093°18'0 0.0
2018-Jan-05 19:30N 30°11' W 093°18'0 0.0
2018-Jan-05 19:00N 30°11' W 093°18'0 0.0
2018-Jan-05 18:30N 30°11' W 093°18'0 0.0
2018-Jan-05 18:00N 30°11' W 093°18'0 0.0
2018-Jan-05 17:30N 30°11' W 093°18'0 0.0
2018-Jan-05 17:00N 30°11' W 093°18'0 0.0
2018-Jan-05 16:30N 30°11' W 093°18'0 0.0
2018-Jan-05 16:00N 30°11' W 093°18'0 0.0
2018-Jan-05 15:30N 30°11' W 093°18'0 0.0
2018-Jan-05 15:00N 30°11' W 093°18'0 0.0
2018-Jan-05 14:30N 30°11' W 093°18'0 0.0
2018-Jan-05 14:00N 30°11' W 093°18'0 0.0
2018-Jan-05 13:30N 30°11' W 093°18'0 0.0
2018-Jan-05 13:00N 30°11' W 093°18'0 0.0
2018-Jan-05 12:30N 30°11' W 093°18'0 0.0
2018-Jan-05 12:00N 30°11' W 093°18'0 0.0
2018-Jan-05 11:30N 30°11' W 093°18'0 0.0
2018-Jan-05 11:00N 30°11' W 093°18'0 0.0
2018-Jan-05 10:30N 30°11' W 093°18'0 0.0
2018-Jan-05 10:00N 30°11' W 093°18'0 0.0
2018-Jan-05 09:30N 30°11' W 093°18'0 0.0
2018-Jan-05 09:00N 30°11' W 093°18'0 0.0
2018-Jan-05 08:30N 30°11' W 093°18'0 0.0
2018-Jan-05 08:00N 30°11' W 093°18'0 0.0
2018-Jan-05 07:30N 30°11' W 093°18'0 0.0
2018-Jan-05 07:00N 30°11' W 093°18'0 0.0
2018-Jan-05 06:30N 30°11' W 093°18'0 0.0
2018-Jan-05 06:00N 30°11' W 093°18'0 0.0
2018-Jan-05 05:30N 30°11' W 093°18'0 0.0
2018-Jan-05 05:00N 30°11' W 093°18'0 0.0
2018-Jan-05 04:30N 30°11' W 093°18'0 0.0
2018-Jan-05 04:00N 30°11' W 093°18'0 0.0
2018-Jan-05 03:30N 30°11' W 093°18'0 0.0
2018-Jan-05 02:57N 30°11' W 093°18'0 0.0
2018-Jan-05 02:30N 30°11' W 093°18'0 0.0
2018-Jan-05 02:00N 30°11' W 093°18'0 0.0
2018-Jan-05 01:30N 30°11' W 093°18'0 0.0
2018-Jan-05 01:00N 30°11' W 093°18'0 0.0
2018-Jan-05 00:30N 30°11' W 093°18'0 0.0
2018-Jan-05 00:00N 30°11' W 093°18'0 0.0
2018-Jan-04 23:30N 30°11' W 093°18'0 0.0
2018-Jan-04 23:00N 30°11' W 093°18'0 0.0
2018-Jan-04 22:30N 30°11' W 093°18'0 0.0
2018-Jan-04 22:00N 30°11' W 093°18'0 0.0
2018-Jan-04 21:30N 30°11' W 093°18'0 0.0
2018-Jan-04 21:00N 30°11' W 093°18'0 0.0
2018-Jan-04 20:30N 30°11' W 093°18'0 0.0
2018-Jan-04 20:00N 30°11' W 093°18'0 0.0
2018-Jan-04 19:30N 30°11' W 093°18'0 0.0
2018-Jan-04 19:00N 30°11' W 093°18'0 0.0
2018-Jan-04 18:30N 30°11' W 093°18'0 0.0
2018-Jan-04 18:00N 30°11' W 093°18'0 0.0
2018-Jan-04 17:30N 30°11' W 093°18'0 0.0
2018-Jan-04 17:00N 30°11' W 093°18'0 0.0
2018-Jan-04 16:30N 30°11' W 093°18'0 0.0
2018-Jan-04 16:00N 30°11' W 093°18'0 0.0
2018-Jan-04 15:30N 30°11' W 093°18'0 0.0
2018-Jan-04 15:00N 30°11' W 093°18'0 0.0
2018-Jan-04 14:30N 30°11' W 093°18'0 0.0
2018-Jan-04 14:00N 30°11' W 093°18'0 0.0
2018-Jan-04 13:30N 30°11' W 093°18'0 0.0
2018-Jan-04 12:57N 30°11' W 093°18'0 0.0
2018-Jan-04 12:30N 30°11' W 093°18'0 0.0
2018-Jan-04 12:00N 30°11' W 093°18'0 0.0
2018-Jan-04 11:30N 30°11' W 093°18'0 0.0
2018-Jan-04 11:00N 30°11' W 093°18'0 0.0
2018-Jan-04 10:30N 30°11' W 093°18'0 0.0
2018-Jan-04 10:00N 30°11' W 093°18'0 0.0
2018-Jan-04 09:30N 30°11' W 093°18'0 0.0
2018-Jan-04 09:00N 30°11' W 093°18'0 0.0
2018-Jan-04 08:30N 30°11' W 093°18'0 0.0
2018-Jan-04 08:00N 30°11' W 093°18'0 0.0
2018-Jan-04 07:30N 30°11' W 093°18'0 0.5
2018-Jan-04 07:00N 30°11' W 093°18'1 2.7
2018-Jan-04 06:30N 30°10' W 093°19'2 3.8
2018-Jan-04 06:00N 30°09' W 093°20'3 5.7
2018-Jan-04 05:30N 30°06' W 093°20'4 7.4
2018-Jan-04 05:00N 30°02' W 093°20'4 7.5
2018-Jan-04 04:30N 29°58' W 093°20'5 9.9
2018-Jan-04 04:00N 29°53' W 093°21'5 9.7
2018-Jan-04 03:30N 29°48' W 093°21'5 9.1
2018-Jan-04 03:00N 29°44' W 093°20'  
Track history (hours):
 
Tides and Currents Weather Stations Pressure Air Temp Water Temp Dewpoint Dewpoint Depression Visibility Wind Speed Wind Dir Waves Ship Positions

Indian Bulker

Last reported at 2018-Jan-09 04:03 UTC. Time now 2018-Jan-21 20:51 UTC.
Position N 29°42' W 094°60'.
Warning: this ship's position is 12 days out of date.

Length 180 m; draft 10.6 m.

Type: Ship. MMSI: 372129000.

Date/timePositionNaut miles runAvg speedWind from/ knotsBaromVisibWave heightAir tempDewpointWater temp
2018-Jan-09 04:03N 29°42' W 094°60'0 8.6
2018-Jan-09 04:00N 29°42' W 095°00'5 7.0
2018-Jan-09 03:21N 29°45' W 095°04'2 5.2
2018-Jan-09 03:00N 29°45' W 095°06'2 3.1
2018-Jan-09 02:15N 29°44' W 095°09'0 0.0
2018-Jan-09 01:57N 29°44' W 095°09'0 0.0
2018-Jan-09 01:30N 29°44' W 095°09'0 0.0
2018-Jan-09 01:00N 29°44' W 095°09'0 0.0
2018-Jan-09 00:30N 29°44' W 095°09'0 0.0
2018-Jan-08 23:54N 29°44' W 095°09'0 0.0
2018-Jan-08 23:30N 29°44' W 095°09'0 0.0
2018-Jan-08 23:00N 29°44' W 095°09'0 0.0
2018-Jan-08 22:24N 29°44' W 095°09'0 0.0
2018-Jan-08 21:57N 29°44' W 095°09'0 0.0
2018-Jan-08 21:12N 29°44' W 095°09'0 0.0
2018-Jan-08 20:24N 29°44' W 095°09'0 0.0
2018-Jan-08 19:54N 29°44' W 095°09'0 0.0
2018-Jan-08 19:24N 29°44' W 095°09'0 0.0
2018-Jan-08 18:48N 29°44' W 095°09'0 0.0
2018-Jan-08 18:30N 29°44' W 095°09'0 0.0
2018-Jan-08 18:00N 29°44' W 095°09'0 0.0
2018-Jan-08 17:30N 29°44' W 095°09'0 0.0
2018-Jan-08 16:48N 29°44' W 095°09'0 0.0
2018-Jan-08 16:27N 29°44' W 095°09'0 0.0
2018-Jan-08 16:00N 29°44' W 095°09'0 0.0
2018-Jan-08 15:27N 29°44' W 095°09'0 0.0
2018-Jan-08 15:00N 29°44' W 095°09'0 0.0
2018-Jan-08 13:06N 29°44' W 095°09'0 0.0
2018-Jan-08 12:15N 29°44' W 095°09'0 0.0
2018-Jan-08 11:57N 29°44' W 095°09'0 0.0
2018-Jan-08 11:30N 29°44' W 095°09'0 0.0
2018-Jan-08 10:57N 29°44' W 095°09'0 0.0
2018-Jan-08 10:27N 29°44' W 095°09'0 0.0
2018-Jan-08 10:00N 29°44' W 095°09'0 0.0
2018-Jan-08 09:30N 29°44' W 095°09'0 0.0
2018-Jan-08 08:45N 29°44' W 095°09'0 0.0
2018-Jan-08 08:30N 29°44' W 095°09'0 0.0
2018-Jan-08 07:48N 29°44' W 095°09'0 0.0
2018-Jan-08 07:30N 29°44' W 095°09'0 0.0
2018-Jan-08 07:00N 29°44' W 095°09'0 0.0
2018-Jan-08 06:24N 29°44' W 095°09'0 0.0
2018-Jan-08 06:00N 29°44' W 095°09'0 0.0
2018-Jan-08 05:18N 29°44' W 095°09'0 0.0
2018-Jan-08 05:00N 29°44' W 095°09'0 0.0
2018-Jan-08 04:30N 29°44' W 095°09'0 0.0
2018-Jan-08 04:00N 29°44' W 095°09'0 0.0
2018-Jan-08 03:30N 29°44' W 095°09'0 0.0
2018-Jan-08 02:57N 29°44' W 095°09'0 0.0
2018-Jan-08 02:18N 29°44' W 095°09'0 0.0
2018-Jan-08 01:51N 29°44' W 095°09'0 0.0
2018-Jan-08 01:27N 29°44' W 095°09'0 0.0
2018-Jan-08 01:00N 29°44' W 095°09'1 1.2
2018-Jan-08 00:30N 29°44' W 095°08'3 6.4
2018-Jan-08 00:00N 29°46' W 095°05'4 8.0
2018-Jan-07 23:30N 29°43' W 095°01'4 9.0
2018-Jan-07 23:01N 29°40' W 094°58'611.1
2018-Jan-07 22:31N 29°35' W 094°56'713.1
2018-Jan-07 22:00N 29°29' W 094°52'80 4.8
2018-Jan-07 05:09N 29°39' W 093°20'1 2.7
2018-Jan-07 04:50N 29°40' W 093°20'3 9.5
2018-Jan-07 04:30N 29°43' W 093°20'4 8.6
2018-Jan-07 04:00N 29°47' W 093°21'4 7.5
2018-Jan-07 03:30N 29°51' W 093°21'4 8.7
2018-Jan-07 03:00N 29°55' W 093°20'5 9.1
2018-Jan-07 02:30N 29°60' W 093°20'4 8.0
2018-Jan-07 02:00N 30°04' W 093°20'4 7.7
2018-Jan-07 01:30N 30°08' W 093°20'4 4.2
2018-Jan-07 00:30N 30°11' W 093°18'0 0.0
2018-Jan-07 00:00N 30°11' W 093°18'0 0.0
2018-Jan-06 23:30N 30°11' W 093°18'0 0.0
2018-Jan-06 23:00N 30°11' W 093°18'0 0.0
2018-Jan-06 22:30N 30°11' W 093°18'0 0.0
2018-Jan-06 22:00N 30°11' W 093°18'0 0.0
2018-Jan-06 21:30N 30°11' W 093°18'0 0.0
2018-Jan-06 21:00N 30°11' W 093°18'0 0.0
2018-Jan-06 20:30N 30°11' W 093°18'0 0.0
2018-Jan-06 20:00N 30°11' W 093°18'0 0.0
2018-Jan-06 19:27N 30°11' W 093°18'0 0.0
2018-Jan-06 19:00N 30°11' W 093°18'0 0.0
2018-Jan-06 18:30N 30°11' W 093°18'0 0.0
2018-Jan-06 18:00N 30°11' W 093°18'0 0.0
2018-Jan-06 17:30N 30°11' W 093°18'0 0.0
2018-Jan-06 17:00N 30°11' W 093°18'0 0.0
2018-Jan-06 16:30N 30°11' W 093°18'0 0.0
2018-Jan-06 16:00N 30°11' W 093°18'0 0.0
2018-Jan-06 15:27N 30°11' W 093°18'0 0.0
2018-Jan-06 15:00N 30°11' W 093°18'0 0.0
2018-Jan-06 14:30N 30°11' W 093°18'0 0.0
2018-Jan-06 14:00N 30°11' W 093°18'0 0.0
2018-Jan-06 13:30N 30°11' W 093°18'0 0.0
2018-Jan-06 13:00N 30°11' W 093°18'0 0.0
2018-Jan-06 12:30N 30°11' W 093°18'0 0.0
2018-Jan-06 12:00N 30°11' W 093°18'0 0.0
2018-Jan-06 11:30N 30°11' W 093°18'0 0.0
2018-Jan-06 11:00N 30°11' W 093°18'0 0.0
2018-Jan-06 10:30N 30°11' W 093°18'0 0.0
2018-Jan-06 10:00N 30°11' W 093°18'0 0.0
2018-Jan-06 09:30N 30°11' W 093°18'0 0.0
2018-Jan-06 09:00N 30°11' W 093°18'0 0.0
2018-Jan-06 08:30N 30°11' W 093°18'0 0.0
2018-Jan-06 08:00N 30°11' W 093°18'0 0.0
2018-Jan-06 07:30N 30°11' W 093°18'0 0.0
2018-Jan-06 07:00N 30°11' W 093°18'0 0.0
2018-Jan-06 06:30N 30°11' W 093°18'0 0.0
2018-Jan-06 06:00N 30°11' W 093°18'0 0.0
2018-Jan-06 05:30N 30°11' W 093°18'0 0.0
2018-Jan-06 05:00N 30°11' W 093°18'0 0.0
2018-Jan-06 04:30N 30°11' W 093°18'0 0.0
2018-Jan-06 04:00N 30°11' W 093°18'0 0.0
2018-Jan-06 03:30N 30°11' W 093°18'0 0.0
2018-Jan-06 02:57N 30°11' W 093°18'0 0.0
2018-Jan-06 02:30N 30°11' W 093°18'0 0.0
2018-Jan-06 02:00N 30°11' W 093°18'0 0.0
2018-Jan-06 01:30N 30°11' W 093°18'0 0.0
2018-Jan-06 01:00N 30°11' W 093°18'0 0.0
2018-Jan-06 00:27N 30°11' W 093°18'0 0.0
2018-Jan-06 00:00N 30°11' W 093°18'0 0.0
2018-Jan-05 23:27N 30°11' W 093°18'0 0.0
2018-Jan-05 22:57N 30°11' W 093°18'0 0.0
2018-Jan-05 22:30N 30°11' W 093°18'0 0.0
2018-Jan-05 22:00N 30°11' W 093°18'0 0.0
2018-Jan-05 21:30N 30°11' W 093°18'0 0.0
2018-Jan-05 21:00N 30°11' W 093°18'0 0.0
2018-Jan-05 20:30N 30°11' W 093°18'0 0.0
2018-Jan-05 20:00N 30°11' W 093°18'0 0.0
2018-Jan-05 19:30N 30°11' W 093°18'0 0.0
2018-Jan-05 19:00N 30°11' W 093°18'0 0.0
2018-Jan-05 18:30N 30°11' W 093°18'0 0.0
2018-Jan-05 18:00N 30°11' W 093°18'0 0.0
2018-Jan-05 17:30N 30°11' W 093°18'0 0.0
2018-Jan-05 17:00N 30°11' W 093°18'0 0.0
2018-Jan-05 16:30N 30°11' W 093°18'0 0.0
2018-Jan-05 16:00N 30°11' W 093°18'0 0.0
2018-Jan-05 15:30N 30°11' W 093°18'0 0.0
2018-Jan-05 15:00N 30°11' W 093°18'0 0.0
2018-Jan-05 14:30N 30°11' W 093°18'0 0.0
2018-Jan-05 14:00N 30°11' W 093°18'0 0.0
2018-Jan-05 13:30N 30°11' W 093°18'0 0.0
2018-Jan-05 13:00N 30°11' W 093°18'0 0.0
2018-Jan-05 12:30N 30°11' W 093°18'0 0.0
2018-Jan-05 12:00N 30°11' W 093°18'0 0.0
2018-Jan-05 11:30N 30°11' W 093°18'0 0.0
2018-Jan-05 11:00N 30°11' W 093°18'0 0.0
2018-Jan-05 10:30N 30°11' W 093°18'0 0.0
2018-Jan-05 10:00N 30°11' W 093°18'0 0.0
2018-Jan-05 09:30N 30°11' W 093°18'0 0.0
2018-Jan-05 09:00N 30°11' W 093°18'0 0.0
2018-Jan-05 08:30N 30°11' W 093°18'0 0.0
2018-Jan-05 08:00N 30°11' W 093°18'0 0.0
2018-Jan-05 07:30N 30°11' W 093°18'0 0.0
2018-Jan-05 07:00N 30°11' W 093°18'0 0.0
2018-Jan-05 06:30N 30°11' W 093°18'0 0.0
2018-Jan-05 06:00N 30°11' W 093°18'0 0.0
2018-Jan-05 05:30N 30°11' W 093°18'0 0.0
2018-Jan-05 05:00N 30°11' W 093°18'0 0.0
2018-Jan-05 04:30N 30°11' W 093°18'0 0.0
2018-Jan-05 04:00N 30°11' W 093°18'0 0.0
2018-Jan-05 03:30N 30°11' W 093°18'0 0.0
2018-Jan-05 02:57N 30°11' W 093°18'0 0.0
2018-Jan-05 02:30N 30°11' W 093°18'0 0.0
2018-Jan-05 02:00N 30°11' W 093°18'0 0.0
2018-Jan-05 01:30N 30°11' W 093°18'0 0.0
2018-Jan-05 01:00N 30°11' W 093°18'0 0.0
2018-Jan-05 00:30N 30°11' W 093°18'0 0.0
2018-Jan-05 00:00N 30°11' W 093°18'0 0.0
2018-Jan-04 23:30N 30°11' W 093°18'0 0.0
2018-Jan-04 23:00N 30°11' W 093°18'0 0.0
2018-Jan-04 22:30N 30°11' W 093°18'0 0.0
2018-Jan-04 22:00N 30°11' W 093°18'0 0.0
2018-Jan-04 21:30N 30°11' W 093°18'0 0.0
2018-Jan-04 21:00N 30°11' W 093°18'0 0.0
2018-Jan-04 20:30N 30°11' W 093°18'0 0.0
2018-Jan-04 20:00N 30°11' W 093°18'0 0.0
2018-Jan-04 19:30N 30°11' W 093°18'0 0.0
2018-Jan-04 19:00N 30°11' W 093°18'0 0.0
2018-Jan-04 18:30N 30°11' W 093°18'0 0.0
2018-Jan-04 18:00N 30°11' W 093°18'0 0.0
2018-Jan-04 17:30N 30°11' W 093°18'0 0.0
2018-Jan-04 17:00N 30°11' W 093°18'0 0.0
2018-Jan-04 16:30N 30°11' W 093°18'0 0.0
2018-Jan-04 16:00N 30°11' W 093°18'0 0.0
2018-Jan-04 15:30N 30°11' W 093°18'0 0.0
2018-Jan-04 15:00N 30°11' W 093°18'0 0.0
2018-Jan-04 14:30N 30°11' W 093°18'0 0.0
2018-Jan-04 14:00N 30°11' W 093°18'0 0.0
2018-Jan-04 13:30N 30°11' W 093°18'0 0.0
2018-Jan-04 12:57N 30°11' W 093°18'0 0.0
2018-Jan-04 12:30N 30°11' W 093°18'0 0.0
2018-Jan-04 12:00N 30°11' W 093°18'0 0.0
2018-Jan-04 11:30N 30°11' W 093°18'0 0.0
2018-Jan-04 11:00N 30°11' W 093°18'0 0.0
2018-Jan-04 10:30N 30°11' W 093°18'0 0.0
2018-Jan-04 10:00N 30°11' W 093°18'0 0.0
2018-Jan-04 09:30N 30°11' W 093°18'0 0.0
2018-Jan-04 09:00N 30°11' W 093°18'0 0.0
2018-Jan-04 08:30N 30°11' W 093°18'0 0.0
2018-Jan-04 08:00N 30°11' W 093°18'0 0.0
2018-Jan-04 07:30N 30°11' W 093°18'0 0.5
2018-Jan-04 07:00N 30°11' W 093°18'1 2.7
2018-Jan-04 06:30N 30°10' W 093°19'2 3.8
2018-Jan-04 06:00N 30°09' W 093°20'3 5.7
2018-Jan-04 05:30N 30°06' W 093°20'4 7.4
2018-Jan-04 05:00N 30°02' W 093°20'4 7.5
2018-Jan-04 04:30N 29°58' W 093°20'5 9.9
2018-Jan-04 04:00N 29°53' W 093°21'5 9.7
2018-Jan-04 03:30N 29°48' W 093°21'5 9.1
2018-Jan-04 03:00N 29°44' W 093°20'  

Dump ship's entire track history